MLP104 LIMC-LIBP
Flight info
| Callsign | MLP104 |
|---|---|
| Flight time | 0h 58m |
| Altitude | 33000 |
| Route | VAKON DCT IBUPU DCT NISIL DCT LUMAV DCT GIPUK DCT MASEG DCT LAPVO Y579 INKIM |
| Aircraft | A320/M-SDE3FGHIRWY/LB1 |
Departure
| Time | 2026-04-23 12:39 |
|---|---|
| Airport | Milan Malpensa International Airport (LIMC) |
Arrival
| Time | 2026-04-23 13:37 |
|---|---|
| Airport | Abruzzo Airport (LIBP) |
| Time | Latitude | Longitude | Altitude | Speed | Heading |
|---|---|---|---|---|---|
| 2026-04-23 11:55 | 45.62189 | 8.71580 | 737 ft | 0 kts | 169° |
| 2026-04-23 12:25 | 45.62195 | 8.71579 | 736 ft | 2 kts | 169° |
| 2026-04-23 12:25 | 45.62211 | 8.71573 | 735 ft | 2 kts | 184° |
| 2026-04-23 12:25 | 45.62227 | 8.71582 | 734 ft | 2 kts | 213° |
| 2026-04-23 12:26 | 45.62241 | 8.71595 | 735 ft | 2 kts | 213° |
| 2026-04-23 12:26 | 45.62255 | 8.71608 | 735 ft | 2 kts | 213° |
| 2026-04-23 12:26 | 45.62264 | 8.71616 | 736 ft | 2 kts | 207° |
| 2026-04-23 12:26 | 45.62279 | 8.71619 | 736 ft | 2 kts | 142° |
| 2026-04-23 12:27 | 45.62289 | 8.71610 | 735 ft | 1 kts | 136° |
| 2026-04-23 12:27 | 45.62296 | 8.71596 | 734 ft | 0 kts | 84° |
| 2026-04-23 12:30 | 45.62297 | 8.71609 | 736 ft | 8 kts | 84° |
| 2026-04-23 12:30 | 45.62315 | 8.71755 | 736 ft | 16 kts | 79° |
| 2026-04-23 12:30 | 45.62324 | 8.71899 | 736 ft | 12 kts | 127° |
| 2026-04-23 12:30 | 45.62244 | 8.71942 | 736 ft | 14 kts | 168° |
| 2026-04-23 12:31 | 45.62131 | 8.71974 | 735 ft | 18 kts | 168° |
| 2026-04-23 12:31 | 45.62002 | 8.72009 | 737 ft | 20 kts | 169° |
| 2026-04-23 12:31 | 45.61864 | 8.72047 | 737 ft | 20 kts | 169° |
| 2026-04-23 12:31 | 45.61726 | 8.72084 | 737 ft | 20 kts | 169° |
| 2026-04-23 12:32 | 45.61591 | 8.72122 | 737 ft | 18 kts | 169° |
| 2026-04-23 12:32 | 45.61460 | 8.72158 | 737 ft | 20 kts | 169° |
| 2026-04-23 12:32 | 45.61319 | 8.72197 | 736 ft | 21 kts | 169° |
| 2026-04-23 12:32 | 45.61170 | 8.72238 | 737 ft | 23 kts | 168° |
| 2026-04-23 12:33 | 45.61023 | 8.72279 | 737 ft | 21 kts | 169° |
| 2026-04-23 12:33 | 45.60878 | 8.72321 | 737 ft | 20 kts | 168° |
| 2026-04-23 12:33 | 45.60739 | 8.72360 | 737 ft | 21 kts | 169° |
| 2026-04-23 12:33 | 45.60638 | 8.72482 | 737 ft | 21 kts | 97° |
| 2026-04-23 12:34 | 45.60624 | 8.72678 | 737 ft | 20 kts | 96° |
| 2026-04-23 12:34 | 45.60609 | 8.72880 | 736 ft | 21 kts | 96° |
| 2026-04-23 12:34 | 45.60594 | 8.73085 | 736 ft | 21 kts | 95° |
| 2026-04-23 12:34 | 45.60626 | 8.73272 | 737 ft | 17 kts | 33° |
| 2026-04-23 12:35 | 45.60723 | 8.73316 | 736 ft | 16 kts | 21° |
| 2026-04-23 12:35 | 45.60847 | 8.73385 | 737 ft | 20 kts | 21° |
| 2026-04-23 12:35 | 45.60973 | 8.73392 | 735 ft | 18 kts | 347° |
| 2026-04-23 12:35 | 45.61090 | 8.73355 | 737 ft | 17 kts | 347° |
| 2026-04-23 12:36 | 45.61212 | 8.73318 | 737 ft | 22 kts | 348° |
| 2026-04-23 12:36 | 45.61373 | 8.73272 | 736 ft | 24 kts | 349° |
| 2026-04-23 12:36 | 45.61536 | 8.73227 | 737 ft | 22 kts | 349° |
| 2026-04-23 12:36 | 45.61619 | 8.73280 | 737 ft | 9 kts | 89° |
| 2026-04-23 12:37 | 45.61626 | 8.73363 | 737 ft | 8 kts | 83° |
| 2026-04-23 12:37 | 45.61630 | 8.73436 | 737 ft | 7 kts | 93° |
| 2026-04-23 12:37 | 45.61610 | 8.73491 | 736 ft | 9 kts | 124° |
| 2026-04-23 12:37 | 45.61592 | 8.73651 | 737 ft | 23 kts | 81° |
| 2026-04-23 12:38 | 45.61660 | 8.73724 | 736 ft | 12 kts | 348° |
| 2026-04-23 12:38 | 45.61806 | 8.73684 | 737 ft | 50 kts | 349° |
| 2026-04-23 12:38 | 45.62389 | 8.73524 | 740 ft | 118 kts | 349° |
| 2026-04-23 12:38 | 45.63381 | 8.73247 | 738 ft | 170 kts | 348° |
| 2026-04-23 12:39 | 45.64534 | 8.72928 | 1404 ft | 158 kts | 347° |
| 2026-04-23 12:39 | 45.65615 | 8.72759 | 1963 ft | 165 kts | 353° |
| 2026-04-23 12:39 | 45.66767 | 8.72708 | 2489 ft | 174 kts | 6° |
| 2026-04-23 12:39 | 45.67929 | 8.73556 | 2723 ft | 204 kts | 49° |
| 2026-04-23 12:40 | 45.68561 | 8.75420 | 3228 ft | 214 kts | 73° |
| 2026-04-23 12:40 | 45.69009 | 8.77472 | 3978 ft | 217 kts | 72° |
| 2026-04-23 12:40 | 45.69576 | 8.79451 | 4822 ft | 215 kts | 54° |
| 2026-04-23 12:40 | 45.70592 | 8.81049 | 5430 ft | 225 kts | 38° |
| 2026-04-23 12:41 | 45.71808 | 8.82510 | 6179 ft | 232 kts | 46° |
| 2026-04-23 12:41 | 45.72537 | 8.84560 | 6979 ft | 239 kts | 79° |
| 2026-04-23 12:41 | 45.72317 | 8.86922 | 7727 ft | 248 kts | 115° |
| 2026-04-23 12:41 | 45.71350 | 8.88986 | 8546 ft | 251 kts | 124° |
| 2026-04-23 12:42 | 45.70309 | 8.91006 | 9408 ft | 253 kts | 124° |
| 2026-04-23 12:42 | 45.69257 | 8.93039 | 10271 ft | 255 kts | 124° |
| 2026-04-23 12:42 | 45.68200 | 8.95092 | 11049 ft | 257 kts | 123° |
| 2026-04-23 12:42 | 45.67137 | 8.97169 | 11820 ft | 260 kts | 123° |
| 2026-04-23 12:43 | 45.66069 | 8.99263 | 12594 ft | 262 kts | 122° |
| 2026-04-23 12:43 | 45.65020 | 9.01397 | 13349 ft | 262 kts | 116° |
| 2026-04-23 12:43 | 45.64290 | 9.03788 | 13931 ft | 269 kts | 101° |
| 2026-04-23 12:43 | 45.63817 | 9.06479 | 14127 ft | 291 kts | 100° |
| 2026-04-23 12:44 | 45.63315 | 9.09401 | 14277 ft | 314 kts | 100° |
| 2026-04-23 12:44 | 45.62772 | 9.12540 | 14479 ft | 334 kts | 101° |
| 2026-04-23 12:44 | 45.62198 | 9.15800 | 15006 ft | 342 kts | 101° |
| 2026-04-23 12:44 | 45.61608 | 9.19103 | 15641 ft | 345 kts | 101° |
| 2026-04-23 12:45 | 45.61010 | 9.22440 | 16299 ft | 348 kts | 101° |
| 2026-04-23 12:45 | 45.60406 | 9.25807 | 16944 ft | 352 kts | 101° |
| 2026-04-23 12:45 | 45.59798 | 9.29207 | 17590 ft | 355 kts | 101° |
| 2026-04-23 12:45 | 45.59186 | 9.32634 | 18231 ft | 358 kts | 101° |
| 2026-04-23 12:46 | 45.58564 | 9.36093 | 18831 ft | 361 kts | 101° |
| 2026-04-23 12:46 | 45.57939 | 9.39570 | 19316 ft | 364 kts | 101° |
| 2026-04-23 12:46 | 45.57305 | 9.43087 | 19812 ft | 370 kts | 101° |
| 2026-04-23 12:46 | 45.56650 | 9.46723 | 19927 ft | 386 kts | 101° |
| 2026-04-23 12:47 | 45.55973 | 9.50489 | 20179 ft | 396 kts | 101° |
| 2026-04-23 12:47 | 45.55302 | 9.54322 | 20636 ft | 400 kts | 101° |
| 2026-04-23 12:47 | 45.54660 | 9.58202 | 21120 ft | 403 kts | 100° |
| 2026-04-23 12:47 | 45.54031 | 9.62116 | 21603 ft | 406 kts | 100° |
| 2026-04-23 12:48 | 45.53406 | 9.66051 | 22077 ft | 408 kts | 100° |
| 2026-04-23 12:48 | 45.52774 | 9.70014 | 22554 ft | 411 kts | 101° |
| 2026-04-23 12:48 | 45.52130 | 9.73998 | 23060 ft | 414 kts | 101° |
| 2026-04-23 12:48 | 45.51474 | 9.78004 | 23509 ft | 416 kts | 101° |
| 2026-04-23 12:49 | 45.50808 | 9.82030 | 23902 ft | 419 kts | 101° |
| 2026-04-23 12:49 | 45.50137 | 9.86073 | 24259 ft | 420 kts | 101° |
| 2026-04-23 12:49 | 45.49459 | 9.90134 | 24630 ft | 422 kts | 101° |
| 2026-04-23 12:49 | 45.48786 | 9.94157 | 24989 ft | 423 kts | 101° |
| 2026-04-23 12:50 | 45.48053 | 9.98229 | 25323 ft | 426 kts | 105° |
| 2026-04-23 12:50 | 45.46927 | 10.02144 | 25665 ft | 430 kts | 114° |
| 2026-04-23 12:50 | 45.45444 | 10.05861 | 26009 ft | 433 kts | 117° |
| 2026-04-23 12:50 | 45.43934 | 10.09573 | 26340 ft | 434 kts | 117° |
| 2026-04-23 12:51 | 45.42933 | 10.12039 | 26555 ft | 435 kts | 117° |
| 2026-04-23 12:51 | 45.41419 | 10.15773 | 26874 ft | 436 kts | 116° |
| 2026-04-23 12:51 | 45.39903 | 10.19522 | 27174 ft | 438 kts | 116° |
| 2026-04-23 12:51 | 45.38384 | 10.23280 | 27461 ft | 439 kts | 116° |
| 2026-04-23 12:52 | 45.36857 | 10.27050 | 27737 ft | 440 kts | 116° |
| 2026-04-23 12:52 | 45.35326 | 10.30825 | 28006 ft | 441 kts | 116° |
| 2026-04-23 12:52 | 45.33789 | 10.34609 | 28309 ft | 443 kts | 116° |
| 2026-04-23 12:52 | 45.32245 | 10.38402 | 28548 ft | 444 kts | 116° |
| 2026-04-23 12:53 | 45.30698 | 10.42187 | 28872 ft | 443 kts | 117° |
| 2026-04-23 12:53 | 45.29149 | 10.45962 | 29241 ft | 441 kts | 117° |
| 2026-04-23 12:53 | 45.27605 | 10.49717 | 29604 ft | 440 kts | 116° |
| 2026-04-23 12:53 | 45.26065 | 10.53462 | 29954 ft | 439 kts | 116° |
| 2026-04-23 12:54 | 45.24529 | 10.57202 | 30302 ft | 438 kts | 116° |
| 2026-04-23 12:54 | 45.22998 | 10.60930 | 30593 ft | 437 kts | 116° |
| 2026-04-23 12:54 | 45.21468 | 10.64647 | 30886 ft | 436 kts | 116° |
| 2026-04-23 12:54 | 45.19939 | 10.68351 | 31173 ft | 435 kts | 116° |
| 2026-04-23 12:55 | 45.18412 | 10.72052 | 31472 ft | 434 kts | 116° |
| 2026-04-23 12:55 | 45.16888 | 10.75746 | 31758 ft | 434 kts | 116° |
| 2026-04-23 12:55 | 45.15368 | 10.79430 | 32047 ft | 433 kts | 116° |
| 2026-04-23 12:55 | 45.13846 | 10.83110 | 32336 ft | 433 kts | 116° |
| 2026-04-23 12:56 | 45.12321 | 10.86789 | 32580 ft | 433 kts | 116° |
| 2026-04-23 12:56 | 45.10794 | 10.90470 | 32852 ft | 433 kts | 116° |
| 2026-04-23 12:56 | 45.09266 | 10.94145 | 33127 ft | 433 kts | 116° |
| 2026-04-23 12:56 | 45.07737 | 10.97819 | 33233 ft | 434 kts | 116° |
| 2026-04-23 12:57 | 45.04662 | 11.05191 | 33249 ft | 435 kts | 117° |
| 2026-04-23 12:57 | 45.01582 | 11.12548 | 33251 ft | 434 kts | 117° |
| 2026-04-23 12:58 | 44.98508 | 11.19886 | 33261 ft | 434 kts | 117° |
| 2026-04-23 12:58 | 44.95478 | 11.27243 | 33267 ft | 433 kts | 116° |
| 2026-04-23 12:59 | 44.92492 | 11.34621 | 33259 ft | 433 kts | 116° |
| 2026-04-23 12:59 | 44.89503 | 11.41993 | 33257 ft | 433 kts | 116° |
| 2026-04-23 13:00 | 44.86492 | 11.49342 | 33273 ft | 433 kts | 116° |
| 2026-04-23 13:00 | 44.83493 | 11.56639 | 33263 ft | 433 kts | 116° |
| 2026-04-23 13:01 | 44.80127 | 11.63711 | 33258 ft | 440 kts | 127° |
| 2026-04-23 13:01 | 44.76020 | 11.70101 | 33268 ft | 440 kts | 128° |
| 2026-04-23 13:02 | 44.71910 | 11.76480 | 33269 ft | 440 kts | 128° |
| 2026-04-23 13:02 | 44.67797 | 11.82847 | 33280 ft | 440 kts | 128° |
| 2026-04-23 13:03 | 44.63688 | 11.89216 | 33262 ft | 440 kts | 128° |
| 2026-04-23 13:03 | 44.59568 | 11.95574 | 33265 ft | 440 kts | 128° |
| 2026-04-23 13:04 | 44.55459 | 12.01947 | 33272 ft | 440 kts | 127° |
| 2026-04-23 13:04 | 44.51373 | 12.08333 | 33283 ft | 440 kts | 127° |
| 2026-04-23 13:05 | 44.47298 | 12.14711 | 33274 ft | 440 kts | 127° |
| 2026-04-23 13:05 | 44.43204 | 12.21076 | 33264 ft | 440 kts | 128° |
| 2026-04-23 13:06 | 44.37049 | 12.30603 | 33260 ft | 440 kts | 128° |
| 2026-04-23 13:07 | 44.32941 | 12.36954 | 33257 ft | 441 kts | 128° |
| 2026-04-23 13:07 | 44.28832 | 12.43295 | 33287 ft | 441 kts | 128° |
| 2026-04-23 13:08 | 44.24704 | 12.49635 | 33284 ft | 441 kts | 128° |
| 2026-04-23 13:08 | 44.20573 | 12.55966 | 33279 ft | 441 kts | 128° |
| 2026-04-23 13:09 | 44.16441 | 12.62295 | 33256 ft | 442 kts | 128° |
| 2026-04-23 13:09 | 44.12308 | 12.68616 | 33250 ft | 442 kts | 128° |
| 2026-04-23 13:10 | 44.08164 | 12.74929 | 33245 ft | 441 kts | 128° |
| 2026-04-23 13:10 | 44.04018 | 12.81229 | 33249 ft | 442 kts | 128° |
| 2026-04-23 13:11 | 43.99864 | 12.87528 | 33244 ft | 442 kts | 128° |
| 2026-04-23 13:11 | 43.95704 | 12.93824 | 33239 ft | 442 kts | 128° |
| 2026-04-23 13:12 | 43.91542 | 13.00109 | 33236 ft | 443 kts | 128° |
| 2026-04-23 13:12 | 43.87364 | 13.06392 | 33233 ft | 443 kts | 128° |
| 2026-04-23 13:13 | 43.83187 | 13.12666 | 33244 ft | 443 kts | 128° |
| 2026-04-23 13:13 | 43.79013 | 13.18939 | 33247 ft | 443 kts | 128° |
| 2026-04-23 13:14 | 43.74839 | 13.25209 | 33087 ft | 443 kts | 128° |
| 2026-04-23 13:14 | 43.72779 | 13.28292 | 32703 ft | 443 kts | 128° |
| 2026-04-23 13:14 | 43.70675 | 13.31431 | 31613 ft | 447 kts | 128° |
| 2026-04-23 13:14 | 43.68557 | 13.34585 | 30657 ft | 448 kts | 128° |
| 2026-04-23 13:15 | 43.66434 | 13.37748 | 29531 ft | 451 kts | 128° |
| 2026-04-23 13:15 | 43.64301 | 13.40925 | 28417 ft | 452 kts | 128° |
| 2026-04-23 13:15 | 43.62160 | 13.44109 | 27310 ft | 453 kts | 128° |
| 2026-04-23 13:15 | 43.60008 | 13.47306 | 26089 ft | 456 kts | 128° |
| 2026-04-23 13:16 | 43.57842 | 13.50518 | 25028 ft | 457 kts | 128° |
| 2026-04-23 13:16 | 43.55690 | 13.53699 | 24221 ft | 451 kts | 128° |
| 2026-04-23 13:16 | 43.53557 | 13.56843 | 23311 ft | 447 kts | 129° |
| 2026-04-23 13:16 | 43.51447 | 13.59952 | 22512 ft | 441 kts | 128° |
| 2026-04-23 13:17 | 43.49372 | 13.63015 | 21760 ft | 436 kts | 128° |
| 2026-04-23 13:17 | 43.47312 | 13.66053 | 21031 ft | 431 kts | 128° |
| 2026-04-23 13:17 | 43.45275 | 13.69053 | 20315 ft | 428 kts | 129° |
| 2026-04-23 13:17 | 43.43249 | 13.72031 | 19615 ft | 424 kts | 129° |
| 2026-04-23 13:18 | 43.41238 | 13.74987 | 18947 ft | 421 kts | 128° |
| 2026-04-23 13:18 | 43.39303 | 13.77925 | 18770 ft | 406 kts | 127° |
| 2026-04-23 13:18 | 43.37468 | 13.80820 | 18688 ft | 402 kts | 126° |
| 2026-04-23 13:18 | 43.35637 | 13.83729 | 18611 ft | 403 kts | 128° |
| 2026-04-23 13:19 | 43.33592 | 13.86386 | 18539 ft | 407 kts | 136° |
| 2026-04-23 13:19 | 43.31257 | 13.88613 | 18448 ft | 411 kts | 146° |
| 2026-04-23 13:19 | 43.28679 | 13.90345 | 18352 ft | 414 kts | 153° |
| 2026-04-23 13:19 | 43.26029 | 13.91872 | 18250 ft | 413 kts | 153° |
| 2026-04-23 13:20 | 43.23381 | 13.93402 | 18147 ft | 413 kts | 153° |
| 2026-04-23 13:20 | 43.20742 | 13.94934 | 18036 ft | 412 kts | 153° |
| 2026-04-23 13:20 | 43.18104 | 13.96473 | 17950 ft | 411 kts | 153° |
| 2026-04-23 13:20 | 43.15475 | 13.98012 | 17509 ft | 410 kts | 153° |
| 2026-04-23 13:21 | 43.12855 | 13.99548 | 16901 ft | 408 kts | 153° |
| 2026-04-23 13:21 | 43.10257 | 14.01066 | 16316 ft | 405 kts | 153° |
| 2026-04-23 13:21 | 43.07675 | 14.02569 | 15762 ft | 402 kts | 153° |
| 2026-04-23 13:21 | 43.05118 | 14.04053 | 15211 ft | 398 kts | 153° |
| 2026-04-23 13:22 | 43.02573 | 14.05530 | 14662 ft | 395 kts | 153° |
| 2026-04-23 13:22 | 43.00055 | 14.06993 | 14112 ft | 392 kts | 153° |
| 2026-04-23 13:22 | 42.97553 | 14.08444 | 13505 ft | 389 kts | 153° |
| 2026-04-23 13:22 | 42.95072 | 14.09880 | 12906 ft | 385 kts | 153° |
| 2026-04-23 13:23 | 42.92614 | 14.11302 | 12306 ft | 382 kts | 153° |
| 2026-04-23 13:23 | 42.90175 | 14.12711 | 11666 ft | 380 kts | 154° |
| 2026-04-23 13:23 | 42.87749 | 14.14111 | 11289 ft | 373 kts | 154° |
| 2026-04-23 13:23 | 42.85408 | 14.15446 | 11192 ft | 356 kts | 156° |
| 2026-04-23 13:24 | 42.83080 | 14.16347 | 11213 ft | 340 kts | 166° |
| 2026-04-23 13:24 | 42.80776 | 14.16663 | 11214 ft | 326 kts | 175° |
| 2026-04-23 13:24 | 42.78556 | 14.16758 | 11214 ft | 314 kts | 175° |
| 2026-04-23 13:24 | 42.76381 | 14.16859 | 11122 ft | 312 kts | 175° |
| 2026-04-23 13:25 | 42.74226 | 14.16961 | 10546 ft | 308 kts | 175° |
| 2026-04-23 13:25 | 42.72102 | 14.17063 | 10419 ft | 306 kts | 175° |
| 2026-04-23 13:25 | 42.69975 | 14.17170 | 10300 ft | 306 kts | 175° |
| 2026-04-23 13:25 | 42.67848 | 14.17278 | 10121 ft | 307 kts | 175° |
| 2026-04-23 13:26 | 42.65712 | 14.17382 | 9447 ft | 305 kts | 176° |
| 2026-04-23 13:26 | 42.63609 | 14.17480 | 8910 ft | 303 kts | 176° |
| 2026-04-23 13:26 | 42.61504 | 14.17579 | 8524 ft | 300 kts | 176° |
| 2026-04-23 13:26 | 42.59408 | 14.17676 | 8017 ft | 302 kts | 177° |
| 2026-04-23 13:27 | 42.57361 | 14.17771 | 7706 ft | 296 kts | 177° |
| 2026-04-23 13:27 | 42.55277 | 14.17864 | 7288 ft | 295 kts | 177° |
| 2026-04-23 13:27 | 42.53259 | 14.17953 | 6903 ft | 293 kts | 178° |
| 2026-04-23 13:27 | 42.51227 | 14.18044 | 6542 ft | 290 kts | 178° |
| 2026-04-23 13:28 | 42.49217 | 14.18137 | 6148 ft | 288 kts | 178° |
| 2026-04-23 13:28 | 42.47225 | 14.18235 | 5760 ft | 286 kts | 178° |
| 2026-04-23 13:28 | 42.45228 | 14.18333 | 5287 ft | 287 kts | 179° |
| 2026-04-23 13:28 | 42.43242 | 14.18428 | 4915 ft | 284 kts | 178° |
| 2026-04-23 13:29 | 42.41330 | 14.18876 | 4634 ft | 278 kts | 156° |
| 2026-04-23 13:29 | 42.39796 | 14.20359 | 4211 ft | 268 kts | 128° |
| 2026-04-23 13:29 | 42.38967 | 14.22544 | 3545 ft | 260 kts | 97° |
| 2026-04-23 13:29 | 42.39025 | 14.24929 | 2851 ft | 252 kts | 70° |
| 2026-04-23 13:30 | 42.39586 | 14.27157 | 2203 ft | 248 kts | 64° |
| 2026-04-23 13:30 | 42.40257 | 14.29218 | 2026 ft | 233 kts | 58° |
| 2026-04-23 13:30 | 42.41034 | 14.31139 | 2006 ft | 231 kts | 55° |
| 2026-04-23 13:30 | 42.41889 | 14.32971 | 2007 ft | 230 kts | 52° |
| 2026-04-23 13:31 | 42.42759 | 14.34743 | 2003 ft | 217 kts | 52° |
| 2026-04-23 13:31 | 42.43583 | 14.36403 | 2004 ft | 209 kts | 51° |
| 2026-04-23 13:31 | 42.44479 | 14.37939 | 2006 ft | 207 kts | 44° |
| 2026-04-23 13:31 | 42.45483 | 14.39315 | 2006 ft | 203 kts | 30° |
| 2026-04-23 13:32 | 42.46769 | 14.39962 | 2006 ft | 197 kts | 3° |
| 2026-04-23 13:32 | 42.48107 | 14.39679 | 2005 ft | 197 kts | 336° |
| 2026-04-23 13:32 | 42.49183 | 14.38528 | 2007 ft | 202 kts | 310° |
| 2026-04-23 13:32 | 42.50024 | 14.36986 | 2008 ft | 204 kts | 309° |
| 2026-04-23 13:33 | 42.50866 | 14.35444 | 2008 ft | 204 kts | 309° |
| 2026-04-23 13:33 | 42.51708 | 14.33902 | 2008 ft | 203 kts | 309° |
| 2026-04-23 13:33 | 42.52547 | 14.32367 | 2006 ft | 201 kts | 309° |
| 2026-04-23 13:33 | 42.53266 | 14.30826 | 2000 ft | 188 kts | 290° |
| 2026-04-23 13:34 | 42.53203 | 14.29095 | 2005 ft | 191 kts | 248° |
| 2026-04-23 13:34 | 42.52283 | 14.27795 | 2019 ft | 196 kts | 219° |
| 2026-04-23 13:34 | 42.51196 | 14.26687 | 1871 ft | 195 kts | 221° |
| 2026-04-23 13:34 | 42.50115 | 14.25550 | 1649 ft | 199 kts | 222° |
| 2026-04-23 13:35 | 42.49035 | 14.24427 | 1401 ft | 192 kts | 222° |
| 2026-04-23 13:35 | 42.48018 | 14.23372 | 1144 ft | 175 kts | 220° |
| 2026-04-23 13:35 | 42.47082 | 14.22401 | 878 ft | 164 kts | 223° |
| 2026-04-23 13:35 | 42.46195 | 14.21489 | 658 ft | 160 kts | 221° |
| 2026-04-23 13:36 | 42.45325 | 14.20574 | 483 ft | 156 kts | 222° |
| 2026-04-23 13:36 | 42.44483 | 14.19708 | 241 ft | 153 kts | 218° |
| 2026-04-23 13:36 | 42.43922 | 14.19124 | 105 ft | 154 kts | 219° |
| 2026-04-23 13:36 | 42.43142 | 14.18310 | 44 ft | 116 kts | 217° |
| 2026-04-23 13:37 | 42.42755 | 14.17918 | 45 ft | 17 kts | 198° |
| 2026-04-23 13:37 | 42.42648 | 14.17909 | 49 ft | 15 kts | 187° |
| 2026-04-23 13:37 | 42.42559 | 14.17940 | 48 ft | 13 kts | 133° |
| 2026-04-23 13:37 | 42.42589 | 14.18031 | 48 ft | 12 kts | 39° |
| 2026-04-23 13:38 | 42.42660 | 14.18103 | 46 ft | 14 kts | 36° |
| 2026-04-23 13:38 | 42.42742 | 14.18186 | 47 ft | 16 kts | 38° |
| 2026-04-23 13:38 | 42.42831 | 14.18279 | 46 ft | 17 kts | 37° |
| 2026-04-23 13:38 | 42.42932 | 14.18382 | 48 ft | 19 kts | 37° |
| 2026-04-23 13:39 | 42.43024 | 14.18510 | 48 ft | 19 kts | 75° |
| 2026-04-23 13:39 | 42.43022 | 14.18660 | 48 ft | 11 kts | 127° |
| 2026-04-23 13:39 | 42.43000 | 14.18699 | 48 ft | 0 kts | 127° |